sensor_id;sensor_type;location;lat;lon;timestamp;pressure;altitude;pressure_sealevel;temperature;humidity
63088;BME280;49173;43.164;27.786;2023-07-02T00:43:36;99711.16;;;22.23;62.65
63088;BME280;49173;43.164;27.786;2023-07-02T00:46:05;99711.63;;;22.27;62.12
63088;BME280;49173;43.164;27.786;2023-07-02T00:48:31;99704.44;;;22.34;62.07
63088;BME280;49173;43.164;27.786;2023-07-02T00:50:58;99704.44;;;22.34;62.08
63088;BME280;49173;43.164;27.786;2023-07-02T00:53:24;99705.31;;;22.34;61.64
63088;BME280;49173;43.164;27.786;2023-07-02T00:55:50;99698.97;;;22.34;61.93
63088;BME280;49173;43.164;27.786;2023-07-02T00:58:16;99700.69;;;22.35;61.71
63088;BME280;49173;43.164;27.786;2023-07-02T01:00:42;99704.09;;;22.37;61.89
63088;BME280;49173;43.164;27.786;2023-07-02T01:03:09;99701.38;;;22.37;61.89
63088;BME280;49173;43.164;27.786;2023-07-02T01:05:36;99689.22;;;22.39;61.62
63088;BME280;49173;43.164;27.786;2023-07-02T01:08:06;99691.47;;;22.36;61.78
63088;BME280;49173;43.164;27.786;2023-07-02T01:10:33;99686.00;;;22.36;61.96
63088;BME280;49173;43.164;27.786;2023-07-02T01:13:08;99682.75;;;22.32;62.03
63088;BME280;49173;43.164;27.786;2023-07-02T01:15:36;99674.72;;;22.31;62.08
63088;BME280;49173;43.164;27.786;2023-07-02T01:18:04;99683.09;;;22.29;62.03
63088;BME280;49173;43.164;27.786;2023-07-02T01:20:31;99680.00;;;22.32;62.03
63088;BME280;49173;43.164;27.786;2023-07-02T01:22:57;99689.44;;;22.30;62.16
63088;BME280;49173;43.164;27.786;2023-07-02T01:25:28;99678.81;;;22.27;62.26
63088;BME280;49173;43.164;27.786;2023-07-02T01:27:55;99676.47;;;22.24;62.34
63088;BME280;49173;43.164;27.786;2023-07-02T01:30:22;99677.16;;;22.17;62.54
63088;BME280;49173;43.164;27.786;2023-07-02T01:32:47;99679.22;;;22.15;62.35
63088;BME280;49173;43.164;27.786;2023-07-02T01:35:13;99674.28;;;22.11;62.33
63088;BME280;49173;43.164;27.786;2023-07-02T01:37:39;99679.91;;;22.09;62.71
63088;BME280;49173;43.164;27.786;2023-07-02T01:40:05;99678.53;;;22.05;62.83
63088;BME280;49173;43.164;27.786;2023-07-02T01:42:32;99684.53;;;22.01;62.87
63088;BME280;49173;43.164;27.786;2023-07-02T01:44:58;99691.72;;;21.93;62.97
63088;BME280;49173;43.164;27.786;2023-07-02T01:47:24;99696.00;;;21.88;63.05
63088;BME280;49173;43.164;27.786;2023-07-02T01:49:50;99682.69;;;21.85;63.35
63088;BME280;49173;43.164;27.786;2023-07-02T01:52:17;99672.25;;;21.88;63.49
63088;BME280;49173;43.164;27.786;2023-07-02T01:54:43;99662.38;;;21.79;63.99
63088;BME280;49173;43.164;27.786;2023-07-02T01:57:09;99661.19;;;21.74;63.61
63088;BME280;49173;43.164;27.786;2023-07-02T01:59:35;99672.78;;;21.67;63.68
63088;BME280;49173;43.164;27.786;2023-07-02T02:02:01;99667.84;;;21.63;64.28
63088;BME280;49173;43.164;27.786;2023-07-02T02:04:27;99662.56;;;21.61;64.53
63088;BME280;49173;43.164;27.786;2023-07-02T02:06:53;99659.81;;;21.61;65.01
63088;BME280;49173;43.164;27.786;2023-07-02T02:09:19;99658.13;;;21.60;65.36
63088;BME280;49173;43.164;27.786;2023-07-02T02:11:49;99663.94;;;21.57;64.81
63088;BME280;49173;43.164;27.786;2023-07-02T02:14:16;99666.50;;;21.51;65.25
63088;BME280;49173;43.164;27.786;2023-07-02T02:16:43;99674.53;;;21.44;65.38
63088;BME280;49173;43.164;27.786;2023-07-02T02:19:12;99678.28;;;21.43;65.21
63088;BME280;49173;43.164;27.786;2023-07-02T02:21:41;99672.97;;;21.42;65.19
63088;BME280;49173;43.164;27.786;2023-07-02T02:24:07;99671.28;;;21.41;65.64
63088;BME280;49173;43.164;27.786;2023-07-02T02:26:34;99680.66;;;21.38;65.63
63088;BME280;49173;43.164;27.786;2023-07-02T02:28:59;99674.00;;;21.32;66.21
63088;BME280;49173;43.164;27.786;2023-07-02T02:31:25;99679.81;;;21.29;66.26
63088;BME280;49173;43.164;27.786;2023-07-02T02:33:51;99676.53;;;21.26;66.66
63088;BME280;49173;43.164;27.786;2023-07-02T02:36:17;99680.78;;;21.20;67.03
63088;BME280;49173;43.164;27.786;2023-07-02T02:38:42;99673.81;;;21.18;67.40
63088;BME280;49173;43.164;27.786;2023-07-02T02:41:08;99677.88;;;21.13;67.21
63088;BME280;49173;43.164;27.786;2023-07-02T02:43:34;99671.75;;;21.11;67.36
63088;BME280;49173;43.164;27.786;2023-07-02T02:46:00;99673.63;;;21.11;67.47
63088;BME280;49173;43.164;27.786;2023-07-02T02:48:26;99674.47;;;21.11;67.79
63088;BME280;49173;43.164;27.786;2023-07-02T02:50:51;99672.78;;;21.10;68.06
63088;BME280;49173;43.164;27.786;2023-07-02T02:53:17;99668.69;;;21.15;68.27
63088;BME280;49173;43.164;27.786;2023-07-02T02:55:43;99667.50;;;21.17;68.41
63088;BME280;49173;43.164;27.786;2023-07-02T02:58:09;99666.28;;;21.20;68.45
63088;BME280;49173;43.164;27.786;2023-07-02T03:00:35;99670.22;;;21.25;68.83
63088;BME280;49173;43.164;27.786;2023-07-02T03:03:00;99667.16;;;21.28;68.90
63088;BME280;49173;43.164;27.786;2023-07-02T03:05:28;99676.75;;;21.32;68.70
63088;BME280;49173;43.164;27.786;2023-07-02T03:07:53;99666.50;;;21.34;68.60
63088;BME280;49173;43.164;27.786;2023-07-02T03:10:19;99668.06;;;21.37;68.13
63088;BME280;49173;43.164;27.786;2023-07-02T03:12:47;99680.31;;;21.41;68.49
63088;BME280;49173;43.164;27.786;2023-07-02T03:15:12;99682.00;;;21.42;69.06
63088;BME280;49173;43.164;27.786;2023-07-02T03:17:38;99686.81;;;21.48;69.26
63088;BME280;49173;43.164;27.786;2023-07-02T03:20:04;99684.41;;;21.53;69.75
63088;BME280;49173;43.164;27.786;2023-07-02T03:22:30;99681.31;;;21.56;69.95
63088;BME280;49173;43.164;27.786;2023-07-02T03:24:56;99688.34;;;21.59;70.07
63088;BME280;49173;43.164;27.786;2023-07-02T03:27:22;99693.44;;;21.62;69.70
63088;BME280;49173;43.164;27.786;2023-07-02T03:29:48;99699.44;;;21.65;69.72
63088;BME280;49173;43.164;27.786;2023-07-02T03:32:13;99692.75;;;21.68;69.64
63088;BME280;49173;43.164;27.786;2023-07-02T03:34:39;99687.47;;;21.75;69.58
63088;BME280;49173;43.164;27.786;2023-07-02T03:37:05;99692.59;;;21.78;69.25
63088;BME280;49173;43.164;27.786;2023-07-02T03:39:32;99688.47;;;21.82;69.11
63088;BME280;49173;43.164;27.786;2023-07-02T03:41:58;99691.75;;;21.85;68.93
63088;BME280;49173;43.164;27.786;2023-07-02T03:44:23;99695.81;;;21.89;69.40
63088;BME280;49173;43.164;27.786;2023-07-02T03:46:49;99694.63;;;21.92;69.49
63088;BME280;49173;43.164;27.786;2023-07-02T03:49:15;99699.22;;;22.00;70.30
63088;BME280;49173;43.164;27.786;2023-07-02T03:51:41;99699.19;;;22.08;70.54
63088;BME280;49173;43.164;27.786;2023-07-02T03:54:06;99689.50;;;22.13;70.15
63088;BME280;49173;43.164;27.786;2023-07-02T03:56:32;99694.06;;;22.21;69.15
63088;BME280;49173;43.164;27.786;2023-07-02T03:58:58;99700.03;;;22.25;68.23
63088;BME280;49173;43.164;27.786;2023-07-02T04:01:24;99690.28;;;22.30;67.75
63088;BME280;49173;43.164;27.786;2023-07-02T04:03:51;99691.94;;;22.39;67.56
63088;BME280;49173;43.164;27.786;2023-07-02T04:06:17;99698.22;;;22.48;66.87
63088;BME280;49173;43.164;27.786;2023-07-02T04:08:44;99701.25;;;22.61;66.44
63088;BME280;49173;43.164;27.786;2023-07-02T04:11:10;99702.56;;;22.73;66.56
63088;BME280;49173;43.164;27.786;2023-07-02T04:13:37;99704.56;;;22.88;65.92
63088;BME280;49173;43.164;27.786;2023-07-02T04:16:03;99711.81;;;23.03;65.59
63088;BME280;49173;43.164;27.786;2023-07-02T04:18:29;99704.56;;;23.19;65.36
63088;BME280;49173;43.164;27.786;2023-07-02T04:20:56;99695.19;;;23.36;65.84
63088;BME280;49173;43.164;27.786;2023-07-02T04:23:21;99696.09;;;23.51;64.48
63088;BME280;49173;43.164;27.786;2023-07-02T04:25:47;99698.25;;;23.64;64.37
63088;BME280;49173;43.164;27.786;2023-07-02T04:28:13;99698.75;;;23.82;64.61
63088;BME280;49173;43.164;27.786;2023-07-02T04:30:38;99705.13;;;23.98;63.98
63088;BME280;49173;43.164;27.786;2023-07-02T04:33:04;99707.56;;;24.07;63.80
63088;BME280;49173;43.164;27.786;2023-07-02T04:35:33;99707.47;;;24.16;63.29
63088;BME280;49173;43.164;27.786;2023-07-02T04:38:00;99706.28;;;24.18;64.39
63088;BME280;49173;43.164;27.786;2023-07-02T04:40:27;99711.25;;;24.15;63.29
63088;BME280;49173;43.164;27.786;2023-07-02T04:42:53;99716.94;;;24.13;62.83
63088;BME280;49173;43.164;27.786;2023-07-02T04:45:26;99712.50;;;24.12;63.32
63088;BME280;49173;43.164;27.786;2023-07-02T04:47:52;99709.47;;;24.07;63.49
63088;BME280;49173;43.164;27.786;2023-07-02T04:50:18;99711.56;;;24.05;63.97
63088;BME280;49173;43.164;27.786;2023-07-02T04:52:44;99716.53;;;24.01;64.70
63088;BME280;49173;43.164;27.786;2023-07-02T04:55:11;99728.56;;;24.00;64.72
63088;BME280;49173;43.164;27.786;2023-07-02T04:57:37;99722.59;;;23.97;65.38
63088;BME280;49173;43.164;27.786;2023-07-02T05:00:04;99731.19;;;23.94;66.08
63088;BME280;49173;43.164;27.786;2023-07-02T05:02:31;99716.63;;;23.93;67.08
63088;BME280;49173;43.164;27.786;2023-07-02T05:04:59;99727.78;;;23.92;67.12
63088;BME280;49173;43.164;27.786;2023-07-02T05:07:25;99730.53;;;23.92;67.27
63088;BME280;49173;43.164;27.786;2023-07-02T05:09:50;99733.28;;;23.92;67.00
63088;BME280;49173;43.164;27.786;2023-07-02T05:12:19;99729.69;;;23.91;67.04
63088;BME280;49173;43.164;27.786;2023-07-02T05:14:45;99733.28;;;23.92;67.37
63088;BME280;49173;43.164;27.786;2023-07-02T05:17:11;99731.56;;;23.91;67.04
63088;BME280;49173;43.164;27.786;2023-07-02T05:19:43;99730.53;;;23.92;66.78
63088;BME280;49173;43.164;27.786;2023-07-02T05:22:09;99730.53;;;23.92;66.20
63088;BME280;49173;43.164;27.786;2023-07-02T05:24:35;99735.34;;;23.90;65.91
63088;BME280;49173;43.164;27.786;2023-07-02T05:27:01;99738.56;;;23.93;67.24
63088;BME280;49173;43.164;27.786;2023-07-02T05:29:27;99735.47;;;23.96;68.10
63088;BME280;49173;43.164;27.786;2023-07-02T05:31:54;99734.88;;;24.01;68.40
63088;BME280;49173;43.164;27.786;2023-07-02T05:34:20;99738.28;;;24.03;68.38
63088;BME280;49173;43.164;27.786;2023-07-02T05:36:45;99740.13;;;24.10;68.14
63088;BME280;49173;43.164;27.786;2023-07-02T05:39:12;99734.25;;;24.14;66.87
63088;BME280;49173;43.164;27.786;2023-07-02T05:41:37;99731.59;;;24.20;67.13
63088;BME280;49173;43.164;27.786;2023-07-02T05:44:03;99730.47;;;24.29;68.42
63088;BME280;49173;43.164;27.786;2023-07-02T05:46:29;99735.03;;;24.37;67.75
63088;BME280;49173;43.164;27.786;2023-07-02T05:48:55;99737.13;;;24.50;67.51
63088;BME280;49173;43.164;27.786;2023-07-02T05:51:23;99726.25;;;24.56;66.40
63088;BME280;49173;43.164;27.786;2023-07-02T05:53:50;99715.38;;;24.63;66.97
63088;BME280;49173;43.164;27.786;2023-07-02T05:56:16;99723.88;;;24.68;67.01
63088;BME280;49173;43.164;27.786;2023-07-02T05:58:42;99723.78;;;24.76;66.60
63088;BME280;49173;43.164;27.786;2023-07-02T06:01:08;99718.16;;;24.84;66.29
63088;BME280;49173;43.164;27.786;2023-07-02T06:03:34;99721.84;;;24.91;65.34
63088;BME280;49173;43.164;27.786;2023-07-02T06:06:00;99715.59;;;24.98;66.05
63088;BME280;49173;43.164;27.786;2023-07-02T06:08:25;99718.78;;;25.01;65.37
63088;BME280;49173;43.164;27.786;2023-07-02T06:10:51;99714.09;;;25.10;66.14
63088;BME280;49173;43.164;27.786;2023-07-02T06:13:17;99719.81;;;25.15;65.31
63088;BME280;49173;43.164;27.786;2023-07-02T06:15:44;99715.84;;;25.17;64.54
63088;BME280;49173;43.164;27.786;2023-07-02T06:18:12;99722.84;;;25.20;63.91
63088;BME280;49173;43.164;27.786;2023-07-02T06:20:38;99717.16;;;25.22;64.48
63088;BME280;49173;43.164;27.786;2023-07-02T06:23:04;99714.22;;;25.23;63.46
63088;BME280;49173;43.164;27.786;2023-07-02T06:25:30;99714.88;;;25.25;64.43
63088;BME280;49173;43.164;27.786;2023-07-02T06:27:56;99713.44;;;25.29;64.15
63088;BME280;49173;43.164;27.786;2023-07-02T06:30:26;99713.06;;;25.32;63.54
63088;BME280;49173;43.164;27.786;2023-07-02T06:32:54;99709.91;;;25.35;62.71
63088;BME280;49173;43.164;27.786;2023-07-02T06:35:20;99718.41;;;25.40;62.92
63088;BME280;49173;43.164;27.786;2023-07-02T06:37:46;99715.94;;;25.45;62.77
63088;BME280;49173;43.164;27.786;2023-07-02T06:40:12;99712.19;;;25.53;61.88
63088;BME280;49173;43.164;27.786;2023-07-02T06:42:38;99713.13;;;25.60;60.96
63088;BME280;49173;43.164;27.786;2023-07-02T06:45:06;99714.47;;;25.71;61.82
63088;BME280;49173;43.164;27.786;2023-07-02T08:50:25;99682.16;;;30.15;49.17
63088;BME280;49173;43.164;27.786;2023-07-02T08:52:53;99678.50;;;30.21;47.97
63088;BME280;49173;43.164;27.786;2023-07-02T08:55:23;99684.56;;;30.30;48.63
63088;BME280;49173;43.164;27.786;2023-07-02T08:57:56;99675.28;;;30.24;47.91
63088;BME280;49173;43.164;27.786;2023-07-02T09:00:28;99674.50;;;30.17;48.38
63088;BME280;49173;43.164;27.786;2023-07-02T09:03:16;99675.72;;;30.21;49.12
63088;BME280;49173;43.164;27.786;2023-07-02T09:06:09;99672.66;;;30.29;50.25
63088;BME280;49173;43.164;27.786;2023-07-02T09:08:37;99675.03;;;30.44;48.49
63088;BME280;49173;43.164;27.786;2023-07-02T09:11:14;99677.81;;;30.62;47.90
63088;BME280;49173;43.164;27.786;2023-07-02T09:13:55;99663.31;;;30.67;48.50
63088;BME280;49173;43.164;27.786;2023-07-02T09:16:33;99665.75;;;30.75;48.33
63088;BME280;49173;43.164;27.786;2023-07-02T09:19:11;99661.31;;;30.74;47.77
63088;BME280;49173;43.164;27.786;2023-07-02T09:24:27;99663.19;;;30.92;47.83
63088;BME280;49173;43.164;27.786;2023-07-02T09:26:59;99656.94;;;30.97;47.41
63088;BME280;49173;43.164;27.786;2023-07-02T09:29:38;99659.19;;;30.88;46.49
63088;BME280;49173;43.164;27.786;2023-07-02T09:32:05;99667.13;;;30.84;47.91
63088;BME280;49173;43.164;27.786;2023-07-02T09:34:41;99661.81;;;30.83;47.92
63088;BME280;49173;43.164;27.786;2023-07-02T09:37:13;99663.06;;;30.87;47.50
63088;BME280;49173;43.164;27.786;2023-07-02T09:39:48;99671.59;;;30.85;48.38
63088;BME280;49173;43.164;27.786;2023-07-02T09:42:18;99679.13;;;30.78;47.26
63088;BME280;49173;43.164;27.786;2023-07-02T09:44:51;99674.00;;;30.82;47.73
63088;BME280;49173;43.164;27.786;2023-07-02T09:47:21;99670.06;;;30.71;47.38
63088;BME280;49173;43.164;27.786;2023-07-02T09:50:08;99674.53;;;30.72;49.07
63088;BME280;49173;43.164;27.786;2023-07-02T09:52:43;99664.38;;;30.66;47.09
63088;BME280;49173;43.164;27.786;2023-07-02T09:55:11;99669.25;;;30.64;48.50
63088;BME280;49173;43.164;27.786;2023-07-02T09:57:48;99665.25;;;30.67;48.51
63088;BME280;49173;43.164;27.786;2023-07-02T10:00:17;99668.78;;;30.74;48.46
63088;BME280;49173;43.164;27.786;2023-07-02T10:02:48;99662.38;;;30.73;47.80
63088;BME280;49173;43.164;27.786;2023-07-02T10:05:32;99667.69;;;30.75;47.90
63088;BME280;49173;43.164;27.786;2023-07-02T10:08:14;99665.28;;;30.78;48.44
63088;BME280;49173;43.164;27.786;2023-07-02T10:10:47;99655.78;;;30.86;48.44
63088;BME280;49173;43.164;27.786;2023-07-02T10:13:26;99653.66;;;30.88;47.46
63088;BME280;49173;43.164;27.786;2023-07-02T10:16:06;99654.53;;;31.00;47.70
63088;BME280;49173;43.164;27.786;2023-07-02T10:18:38;99655.06;;;31.09;46.97
63088;BME280;49173;43.164;27.786;2023-07-02T10:21:20;99652.31;;;31.21;46.85
63088;BME280;49173;43.164;27.786;2023-07-02T10:23:55;99658.66;;;31.28;45.41
63088;BME280;49173;43.164;27.786;2023-07-02T10:26:21;99645.94;;;31.20;46.14
63088;BME280;49173;43.164;27.786;2023-07-02T10:29:00;99655.03;;;31.27;45.18
63088;BME280;49173;43.164;27.786;2023-07-02T10:31:28;99641.81;;;31.41;45.38
63088;BME280;49173;43.164;27.786;2023-07-02T10:33:58;99644.13;;;31.56;45.59
63088;BME280;49173;43.164;27.786;2023-07-02T10:36:32;99636.66;;;31.68;45.25
63088;BME280;49173;43.164;27.786;2023-07-02T10:39:04;99643.44;;;31.72;45.09
63088;BME280;49173;43.164;27.786;2023-07-02T10:41:37;99638.72;;;31.73;45.25
63088;BME280;49173;43.164;27.786;2023-07-02T10:44:12;99626.53;;;31.62;46.15
63088;BME280;49173;43.164;27.786;2023-07-02T10:46:47;99632.78;;;31.57;45.38
63088;BME280;49173;43.164;27.786;2023-07-02T10:49:20;99630.75;;;31.53;45.17
63088;BME280;49173;43.164;27.786;2023-07-02T10:52:01;99626.00;;;31.41;44.44
63088;BME280;49173;43.164;27.786;2023-07-02T10:54:43;99625.03;;;31.36;44.33
63088;BME280;49173;43.164;27.786;2023-07-02T10:57:21;99622.75;;;31.14;44.11
63088;BME280;49173;43.164;27.786;2023-07-02T11:00:14;99629.03;;;31.10;44.58
63088;BME280;49173;43.164;27.786;2023-07-02T11:02:44;99619.16;;;31.14;44.78
63088;BME280;49173;43.164;27.786;2023-07-02T11:05:14;99611.56;;;31.09;45.70
63088;BME280;49173;43.164;27.786;2023-07-02T11:07:45;99625.38;;;31.28;46.11
63088;BME280;49173;43.164;27.786;2023-07-02T11:10:26;99608.16;;;31.37;44.24
63088;BME280;49173;43.164;27.786;2023-07-02T11:12:58;99611.31;;;31.53;45.55
63088;BME280;49173;43.164;27.786;2023-07-02T11:15:36;99615.28;;;31.57;46.24
63088;BME280;49173;43.164;27.786;2023-07-02T11:18:17;99618.31;;;31.43;45.18
63088;BME280;49173;43.164;27.786;2023-07-02T11:21:08;99608.16;;;31.49;44.87
63088;BME280;49173;43.164;27.786;2023-07-02T11:23:35;99613.59;;;31.44;43.78
63088;BME280;49173;43.164;27.786;2023-07-02T11:26:08;99611.28;;;31.29;43.07
63088;BME280;49173;43.164;27.786;2023-07-02T11:28:35;99617.78;;;31.23;43.74
63088;BME280;49173;43.164;27.786;2023-07-02T11:31:04;99617.66;;;31.00;44.49
63088;BME280;49173;43.164;27.786;2023-07-02T11:33:40;99613.06;;;30.94;45.15
63088;BME280;49173;43.164;27.786;2023-07-02T11:36:19;99613.88;;;30.82;47.09
63088;BME280;49173;43.164;27.786;2023-07-02T11:38:46;99624.88;;;30.89;44.51
63088;BME280;49173;43.164;27.786;2023-07-02T11:41:18;99619.78;;;30.86;43.81
63088;BME280;49173;43.164;27.786;2023-07-02T11:43:47;99620.19;;;30.71;43.34
63088;BME280;49173;43.164;27.786;2023-07-02T11:46:17;99603.63;;;30.64;43.37
63088;BME280;49173;43.164;27.786;2023-07-02T11:48:46;99621.28;;;30.52;45.18
63088;BME280;49173;43.164;27.786;2023-07-02T11:51:15;99615.44;;;30.42;45.71
63088;BME280;49173;43.164;27.786;2023-07-02T11:53:44;99619.88;;;30.43;46.61
63088;BME280;49173;43.164;27.786;2023-07-02T11:56:14;99616.97;;;30.56;47.54
63088;BME280;49173;43.164;27.786;2023-07-02T11:58:41;99616.97;;;30.38;49.02
63088;BME280;49173;43.164;27.786;2023-07-02T12:01:10;99617.28;;;30.48;49.46
63088;BME280;49173;43.164;27.786;2023-07-02T12:03:37;99613.59;;;30.54;48.77
63088;BME280;49173;43.164;27.786;2023-07-02T12:06:06;99617.66;;;30.51;49.89
63088;BME280;49173;43.164;27.786;2023-07-02T12:08:35;99616.50;;;30.59;49.53
63088;BME280;49173;43.164;27.786;2023-07-02T12:11:07;99616.50;;;30.59;50.54
63088;BME280;49173;43.164;27.786;2023-07-02T12:13:39;99613.09;;;30.57;49.37
63088;BME280;49173;43.164;27.786;2023-07-02T12:16:28;99616.22;;;30.67;48.51
63088;BME280;49173;43.164;27.786;2023-07-02T12:18:54;99603.97;;;30.75;49.13
63088;BME280;49173;43.164;27.786;2023-07-02T12:21:24;99607.25;;;30.83;49.40
63088;BME280;49173;43.164;27.786;2023-07-02T12:23:50;99590.63;;;30.83;49.05
63088;BME280;49173;43.164;27.786;2023-07-02T12:26:20;99603.53;;;30.89;48.88
63088;BME280;49173;43.164;27.786;2023-07-02T12:28:50;99605.47;;;30.89;49.38
63088;BME280;49173;43.164;27.786;2023-07-02T12:31:31;99602.84;;;30.94;48.29
63088;BME280;49173;43.164;27.786;2023-07-02T12:33:58;99604.22;;;30.73;48.48
63088;BME280;49173;43.164;27.786;2023-07-02T12:36:27;99605.41;;;30.77;47.76
63088;BME280;49173;43.164;27.786;2023-07-02T12:39:08;99605.91;;;30.86;48.10
63088;BME280;49173;43.164;27.786;2023-07-02T12:41:43;99611.03;;;31.01;48.08
63088;BME280;49173;43.164;27.786;2023-07-02T12:44:12;99593.19;;;30.97;47.92
63088;BME280;49173;43.164;27.786;2023-07-02T12:46:41;99593.06;;;30.92;49.16
63088;BME280;49173;43.164;27.786;2023-07-02T12:49:15;99583.66;;;30.93;47.69
63088;BME280;49173;43.164;27.786;2023-07-02T12:51:44;99577.72;;;31.19;47.17
63088;BME280;49173;43.164;27.786;2023-07-02T12:54:10;99575.25;;;31.41;44.41
63088;BME280;49173;43.164;27.786;2023-07-02T12:56:39;99585.03;;;31.43;45.59
63088;BME280;49173;43.164;27.786;2023-07-02T12:59:11;99587.09;;;31.60;45.42
63088;BME280;49173;43.164;27.786;2023-07-02T13:01:37;99585.28;;;31.54;45.21
63088;BME280;49173;43.164;27.786;2023-07-02T13:04:12;99579.34;;;31.62;47.04
63088;BME280;49173;43.164;27.786;2023-07-02T13:06:52;99589.97;;;31.77;45.80
63088;BME280;49173;43.164;27.786;2023-07-02T13:09:29;99588.78;;;31.96;44.41
63088;BME280;49173;43.164;27.786;2023-07-02T13:11:58;99588.78;;;31.96;43.80
63088;BME280;49173;43.164;27.786;2023-07-02T13:14:26;99591.91;;;31.76;43.81
63088;BME280;49173;43.164;27.786;2023-07-02T13:16:55;99584.19;;;31.66;43.31
63088;BME280;49173;43.164;27.786;2023-07-02T13:19:24;99582.00;;;31.45;43.62
63088;BME280;49173;43.164;27.786;2023-07-02T13:22:02;99576.22;;;31.47;44.66
63088;BME280;49173;43.164;27.786;2023-07-02T13:24:36;99561.75;;;31.44;44.86
63088;BME280;49173;43.164;27.786;2023-07-02T13:27:05;99573.94;;;31.13;45.07
63088;BME280;49173;43.164;27.786;2023-07-02T13:29:42;99569.50;;;31.12;45.52
63088;BME280;49173;43.164;27.786;2023-07-02T13:32:14;99577.09;;;31.17;43.73
63088;BME280;49173;43.164;27.786;2023-07-02T13:34:49;99565.38;;;31.15;42.64
63088;BME280;49173;43.164;27.786;2023-07-02T13:37:41;99566.47;;;31.02;45.01
63088;BME280;49173;43.164;27.786;2023-07-02T13:40:19;99565.28;;;31.10;44.67
63088;BME280;49173;43.164;27.786;2023-07-02T13:42:51;99564.00;;;31.24;45.33
63088;BME280;49173;43.164;27.786;2023-07-02T13:45:23;99568.31;;;31.20;44.87
63088;BME280;49173;43.164;27.786;2023-07-02T13:47:57;99564.94;;;31.18;46.01
63088;BME280;49173;43.164;27.786;2023-07-02T13:50:27;99566.94;;;31.29;45.59
63088;BME280;49173;43.164;27.786;2023-07-02T13:52:56;99572.75;;;31.21;46.31
63088;BME280;49173;43.164;27.786;2023-07-02T13:55:31;99574.44;;;31.22;45.76
63088;BME280;49173;43.164;27.786;2023-07-02T13:58:01;99574.16;;;31.30;44.94
63088;BME280;49173;43.164;27.786;2023-07-02T14:00:39;99578.75;;;31.36;43.51
63088;BME280;49173;43.164;27.786;2023-07-02T14:03:09;99574.75;;;31.32;44.37
63088;BME280;49173;43.164;27.786;2023-07-02T14:08:30;99570.28;;;31.43;43.76
63088;BME280;49173;43.164;27.786;2023-07-02T14:11:02;99566.66;;;31.42;42.52
63088;BME280;49173;43.164;27.786;2023-07-02T14:13:32;99559.44;;;31.41;43.09
63088;BME280;49173;43.164;27.786;2023-07-02T14:16:02;99557.69;;;31.17;43.55
63088;BME280;49173;43.164;27.786;2023-07-02T14:18:36;99557.66;;;31.05;44.39
63088;BME280;49173;43.164;27.786;2023-07-02T14:21:06;99548.25;;;30.95;45.03
63088;BME280;49173;43.164;27.786;2023-07-02T14:23:40;99548.34;;;30.88;44.66
63088;BME280;49173;43.164;27.786;2023-07-02T14:26:07;99536.31;;;30.94;44.98
63088;BME280;49173;43.164;27.786;2023-07-02T14:28:35;99537.91;;;31.02;44.84
63088;BME280;49173;43.164;27.786;2023-07-02T14:31:03;99554.59;;;31.25;44.28
63088;BME280;49173;43.164;27.786;2023-07-02T14:33:34;99540.41;;;31.45;43.71
63088;BME280;49173;43.164;27.786;2023-07-02T14:36:11;99550.63;;;31.56;43.59
63088;BME280;49173;43.164;27.786;2023-07-02T14:38:39;99549.09;;;31.72;43.38
63088;BME280;49173;43.164;27.786;2023-07-02T14:41:05;99555.84;;;31.76;43.23
63088;BME280;49173;43.164;27.786;2023-07-02T14:43:34;99547.28;;;31.66;42.95
63088;BME280;49173;43.164;27.786;2023-07-02T14:46:05;99548.22;;;31.71;43.17
63088;BME280;49173;43.164;27.786;2023-07-02T14:48:31;99554.38;;;31.62;42.90
63088;BME280;49173;43.164;27.786;2023-07-02T14:51:04;99551.97;;;31.54;43.78
63088;BME280;49173;43.164;27.786;2023-07-02T14:53:34;99562.59;;;31.45;44.81
63088;BME280;49173;43.164;27.786;2023-07-02T14:56:04;99561.38;;;31.29;45.47
63088;BME280;49173;43.164;27.786;2023-07-02T14:58:39;99565.28;;;31.22;44.66
63088;BME280;49173;43.164;27.786;2023-07-02T15:01:08;99571.53;;;31.05;45.24
63088;BME280;49173;43.164;27.786;2023-07-02T15:03:41;99576.09;;;31.00;44.94
63088;BME280;49173;43.164;27.786;2023-07-02T15:06:13;99586.09;;;31.01;45.01
63088;BME280;49173;43.164;27.786;2023-07-02T15:08:46;99577.78;;;31.01;44.38
63088;BME280;49173;43.164;27.786;2023-07-02T15:11:21;99588.97;;;30.94;44.54
63088;BME280;49173;43.164;27.786;2023-07-02T15:13:59;99588.94;;;30.82;44.42
63088;BME280;49173;43.164;27.786;2023-07-02T15:16:36;99591.09;;;30.80;43.57
63088;BME280;49173;43.164;27.786;2023-07-02T15:19:23;99600.03;;;30.82;42.98
63088;BME280;49173;43.164;27.786;2023-07-02T15:21:58;99590.63;;;30.83;41.75
63088;BME280;49173;43.164;27.786;2023-07-02T15:24:32;99599.78;;;30.66;40.24
63088;BME280;49173;43.164;27.786;2023-07-02T15:27:01;99610.41;;;30.50;41.52
63088;BME280;49173;43.164;27.786;2023-07-02T15:29:29;99609.25;;;30.58;42.03
63088;BME280;49173;43.164;27.786;2023-07-02T15:32:13;99620.81;;;30.55;41.15
63088;BME280;49173;43.164;27.786;2023-07-02T15:34:56;99620.91;;;30.48;41.81
63088;BME280;49173;43.164;27.786;2023-07-02T15:37:28;99618.19;;;30.42;40.76
63088;BME280;49173;43.164;27.786;2023-07-02T15:39:55;99619.50;;;30.21;42.16
63088;BME280;49173;43.164;27.786;2023-07-02T15:42:30;99628.50;;;30.16;42.74
63088;BME280;49173;43.164;27.786;2023-07-02T15:45:07;99641.22;;;29.99;43.17
63088;BME280;49173;43.164;27.786;2023-07-02T15:47:44;99635.16;;;29.90;44.06
63088;BME280;49173;43.164;27.786;2023-07-02T15:50:13;99639.97;;;29.95;44.40
63088;BME280;49173;43.164;27.786;2023-07-02T15:52:49;99641.84;;;30.01;43.68
63088;BME280;49173;43.164;27.786;2023-07-02T15:55:26;99651.34;;;29.87;43.66